CheckWX is a tool to help pilots better visualize weather data.  It is not intended as a substitute for an official pre-flight weather briefing.

05:18:36 UTC

HETR METAR
El Tor Airport
Egypt
Current

1 hour ago

HETR 200400Z 00000KT CAVOK 10/06 Q1021
Observed
Feb-20 @ 04:00 UTC
Visibility
10,000+ meters
Flight Rules
VFR
Cloud Levels
  • Clear skies
Temperature
10°C / 50°F
Dewpoint
C / 43°F
Humidity
76%
Altimeter
30.15" Hg
Pressure
1020.92 hPa
Previous

2 hours ago

HETR 200300Z 01007KT CAVOK 11/06 Q1020
Observed
Feb-20 @ 03:00 UTC
Wind
  • 010° at 7 KTS
Visibility
10,000+ meters
Flight Rules
VFR
Cloud Levels
  • Clear skies
Temperature
11°C / 52°F
Dewpoint
C / 43°F
Humidity
72%
Altimeter
30.12" Hg
Pressure
1019.92 hPa
Previous

3 hours ago

HETR 200200Z 00000KT CAVOK 11/07 Q1020
Observed
Feb-20 @ 02:00 UTC
Visibility
10,000+ meters
Flight Rules
VFR
Cloud Levels
  • Clear skies
Temperature
11°C / 52°F
Dewpoint
C / 45°F
Humidity
77%
Altimeter
30.12" Hg
Pressure
1019.92 hPa